Time;durP1;ratioP1;P1;durP2;ratioP2;P2;SDS_P1;SDS_P2;PMS_P1;PMS_P2;Temp;Humidity;BMP_temperature;BMP_pressure;BME280_temperature;BME280_humidity;BME280_pressure;Samples;Min_cycle;Max_cycle;Signal;HPM_P1;HPM_P2
2023/07/06 00:00:14;;;;;;;5.15;3.22;;;;;;;22.40;nan;61984.78;5034902;28;20176;-66
2023/07/06 00:02:41;;;;;;;4.32;3.00;;;;;;;22.31;nan;61994.81;5034461;28;20246;-66
2023/07/06 00:05:08;;;;;;;6.28;3.22;;;;;;;22.24;nan;61872.88;5034801;28;20178;-65
2023/07/06 00:07:34;;;;;;;5.07;3.55;;;;;;;22.23;nan;61876.38;5034718;28;20202;-66
2023/07/06 00:09:59;;;;;;;5.40;3.15;;;;;;;22.42;nan;61944.84;5034831;28;20160;-66
2023/07/06 00:12:25;;;;;;;6.60;3.25;;;;;;;22.34;nan;62037.84;5034418;28;20546;-65
2023/07/06 00:14:50;;;;;;;4.82;2.90;;;;;;;22.63;nan;61929.06;5034603;28;20163;-67
2023/07/06 00:17:17;;;;;;;6.10;3.83;;;;;;;22.55;nan;61917.38;5034217;28;20660;-66
2023/07/06 00:19:43;;;;;;;4.65;3.03;;;;;;;22.66;nan;61933.03;5034533;28;20172;-67
2023/07/06 00:22:10;;;;;;;5.40;3.22;;;;;;;22.28;nan;61918.50;5034350;28;20175;-64
2023/07/06 00:24:37;;;;;;;5.47;3.58;;;;;;;22.51;nan;61897.78;5032720;28;20184;-65
2023/07/06 00:27:02;;;;;;;5.10;3.70;;;;;;;22.50;nan;61907.06;5033674;28;20203;-66
2023/07/06 00:29:33;;;;;;;5.32;3.63;;;;;;;22.33;nan;62010.13;5034097;28;20252;-67
2023/07/06 00:32:26;;;;;;;4.40;2.90;;;;;;;22.43;nan;62044.91;5033616;28;20654;-66
2023/07/06 00:34:53;;;;;;;4.93;3.60;;;;;;;22.33;nan;61807.59;5033795;28;20178;-66
2023/07/06 00:37:21;;;;;;;5.80;3.50;;;;;;;22.24;nan;61948.34;5033436;28;20646;-66
2023/07/06 00:39:47;;;;;;;4.63;3.00;;;;;;;22.48;nan;61995.91;5033801;28;20178;-66
2023/07/06 00:42:20;;;;;;;5.35;3.67;;;;;;;22.59;nan;62273.56;5034010;28;20175;-66
2023/07/06 00:44:47;;;;;;;6.30;3.70;;;;;;;22.24;nan;62036.31;5034097;28;20182;-66
2023/07/06 00:47:13;;;;;;;4.50;3.13;;;;;;;22.26;nan;62030.78;5033641;28;20210;-66
2023/07/06 00:49:39;;;;;;;5.90;3.60;;;;;;;22.26;nan;61948.03;5032578;28;20548;-66
2023/07/06 00:52:06;;;;;;;6.03;3.65;;;;;;;22.53;nan;61988.59;5033185;28;20627;-66
2023/07/06 00:54:35;;;;;;;5.35;3.47;;;;;;;22.40;nan;62052.50;5033628;28;20167;-66
2023/07/06 00:57:02;;;;;;;4.47;3.25;;;;;;;22.52;nan;61909.31;5031643;28;20282;-66
2023/07/06 00:59:30;;;;;;;6.03;3.33;;;;;;;22.52;nan;61932.75;5031643;28;20159;-65
2023/07/06 01:01:59;;;;;;;7.20;3.33;;;;;;;22.71;nan;61938.75;5031265;28;20711;-66
2023/07/06 01:04:26;;;;;;;4.55;3.20;;;;;;;22.31;nan;61984.41;5029770;28;20175;-66
2023/07/06 01:06:54;;;;;;;6.10;3.13;;;;;;;22.71;nan;62031.97;5031304;28;20358;-66
2023/07/06 01:09:20;;;;;;;5.72;3.28;;;;;;;22.53;nan;62030.25;5031825;28;20171;-66
2023/07/06 01:11:46;;;;;;;5.38;3.25;;;;;;;22.57;nan;61959.28;5032909;28;20259;-65
2023/07/06 01:14:13;;;;;;;4.57;3.38;;;;;;;22.73;nan;62295.38;5033639;28;20168;-65
2023/07/06 01:16:44;;;;;;;4.38;3.35;;;;;;;22.76;nan;62009.00;5033438;28;20254;-66
2023/07/06 01:19:28;;;;;;;4.97;3.00;;;;;;;22.65;nan;62025.69;5033213;28;20183;-66
2023/07/06 01:22:14;;;;;;;7.32;3.10;;;;;;;22.51;nan;61918.03;5033669;28;20188;-66
2023/07/06 01:24:54;;;;;;;5.65;3.53;;;;;;;22.59;nan;61958.97;5033474;28;20167;-66
2023/07/06 01:27:34;;;;;;;6.53;3.30;;;;;;;22.69;nan;62042.72;5032457;28;20191;-66
2023/07/06 01:30:21;;;;;;;4.03;2.97;;;;;;;22.72;nan;62010.22;5033407;28;20179;-66
2023/07/06 01:32:55;;;;;;;6.10;3.33;;;;;;;22.44;nan;62062.25;5033286;28;20173;-66
2023/07/06 01:35:44;;;;;;;8.30;3.40;;;;;;;22.56;nan;61989.41;5033189;28;20187;-66
2023/07/06 01:38:11;;;;;;;5.15;3.30;;;;;;;22.47;nan;61971.91;5033346;28;20159;-65
2023/07/06 01:40:36;;;;;;;5.47;3.40;;;;;;;22.37;nan;62122.00;5033139;28;20203;-66
2023/07/06 01:43:02;;;;;;;5.55;3.60;;;;;;;22.46;nan;61923.91;5033052;28;20638;-65
2023/07/06 01:45:29;;;;;;;5.25;3.40;;;;;;;22.23;nan;62011.75;5032980;28;20191;-66
2023/07/06 01:48:00;;;;;;;6.82;3.75;;;;;;;22.43;nan;61969.41;5032770;28;20195;-65
2023/07/06 01:50:52;;;;;;;6.97;3.55;;;;;;;22.38;nan;61966.88;5032698;28;20258;-66
2023/07/06 01:53:38;;;;;;;8.07;3.63;;;;;;;22.26;nan;61968.28;5032937;28;20210;-65
2023/07/06 01:56:18;;;;;;;5.60;3.45;;;;;;;22.11;nan;61878.34;5032174;28;20230;-67
2023/07/06 01:58:58;;;;;;;3.83;2.95;;;;;;;22.03;nan;61951.09;5032659;28;20159;-65
2023/07/06 02:01:28;;;;;;;5.90;3.92;;;;;;;21.96;nan;61982.13;5032504;28;20179;-66
2023/07/06 02:03:55;;;;;;;5.10;3.05;;;;;;;21.74;nan;61977.91;5032809;28;20258;-65
2023/07/06 02:06:22;;;;;;;6.85;3.78;;;;;;;21.90;nan;61980.50;5032157;28;20194;-66
2023/07/06 02:08:49;;;;;;;5.20;3.45;;;;;;;22.16;nan;61926.25;5032379;28;20179;-65
2023/07/06 02:11:18;;;;;;;4.85;3.38;;;;;;;22.30;nan;61925.97;5032069;28;20225;-65
2023/07/06 02:13:43;;;;;;;6.15;3.92;;;;;;;22.24;nan;61864.50;5032309;28;20171;-65
2023/07/06 02:16:09;;;;;;;7.38;3.92;;;;;;;22.14;nan;61989.06;5032616;28;20542;-65
2023/07/06 02:18:35;;;;;;;6.35;4.13;;;;;;;22.03;nan;61951.09;5032788;28;20207;-65
2023/07/06 02:21:01;;;;;;;5.20;3.65;;;;;;;21.30;nan;61852.47;5032078;28;20205;-65
2023/07/06 02:23:27;;;;;;;6.13;3.90;;;;;;;22.02;nan;61884.31;5031942;28;20167;-65
2023/07/06 02:25:53;;;;;;;5.75;3.60;;;;;;;21.90;nan;62016.38;5032052;28;20179;-66
2023/07/06 02:28:22;;;;;;;6.88;3.90;;;;;;;22.06;nan;61909.13;5032168;28;20195;-67
2023/07/06 02:30:49;;;;;;;14.32;3.63;;;;;;;22.11;nan;61847.69;5032141;28;20187;-64
2023/07/06 02:33:17;;;;;;;4.90;3.45;;;;;;;22.14;nan;61910.97;5032038;28;20179;-65
2023/07/06 02:35:46;;;;;;;5.45;3.83;;;;;;;21.83;nan;61958.97;5031905;28;20313;-65
2023/07/06 02:38:17;;;;;;;6.47;4.13;;;;;;;21.43;nan;62007.63;5031378;28;20194;-66
2023/07/06 02:40:43;;;;;;;6.30;4.13;;;;;;;21.91;nan;61804.16;5031964;28;20691;-66
2023/07/06 02:43:09;;;;;;;6.75;3.90;;;;;;;22.22;nan;62203.25;5031901;28;20167;-66
2023/07/06 02:45:35;;;;;;;5.95;3.85;;;;;;;22.15;nan;61849.09;5031826;28;20180;-65
2023/07/06 02:48:01;;;;;;;6.15;3.90;;;;;;;21.99;nan;61789.84;5031466;28;20585;-65
2023/07/06 02:50:27;;;;;;;7.20;4.13;;;;;;;22.06;nan;62060.06;5031764;28;20642;-66
2023/07/06 02:52:53;;;;;;;7.43;3.85;;;;;;;22.07;nan;61970.69;5031332;28;20168;-66
2023/07/06 02:55:18;;;;;;;8.73;3.95;;;;;;;22.34;nan;61957.13;5032153;28;20175;-66
2023/07/06 02:57:44;;;;;;;9.45;4.10;;;;;;;22.15;nan;61919.34;5031950;28;20207;-67
2023/07/06 03:00:16;;;;;;;6.43;3.92;;;;;;;22.13;nan;62026.38;5031642;28;20181;-66
2023/07/06 03:02:45;;;;;;;7.32;4.13;;;;;;;22.46;nan;61928.56;5031559;28;20638;-66
2023/07/06 03:05:11;;;;;;;4.80;3.83;;;;;;;22.48;nan;62232.91;5031500;28;20226;-65
2023/07/06 03:07:38;;;;;;;6.13;3.80;;;;;;;21.97;nan;61977.50;5031475;28;20258;-66
2023/07/06 03:10:07;;;;;;;7.18;4.10;;;;;;;23.06;nan;62324.13;5031329;28;20230;-67
2023/07/06 03:12:36;;;;;;;7.65;4.00;;;;;;;23.14;nan;62130.47;5031452;28;20175;-66
2023/07/06 03:15:15;;;;;;;9.15;4.30;;;;;;;23.72;nan;62115.13;5031542;28;20175;-66
2023/07/06 03:17:42;;;;;;;6.93;4.07;;;;;;;24.04;nan;62237.19;5029833;28;20277;-66
2023/07/06 03:20:14;;;;;;;5.18;3.63;;;;;;;24.52;nan;62139.84;5029991;28;20278;-66
2023/07/06 03:22:48;;;;;;;6.07;4.07;;;;;;;25.09;nan;62423.38;5029492;28;20662;-67
2023/07/06 03:25:21;;;;;;;5.57;3.88;;;;;;;25.42;nan;62350.63;5029306;28;20183;-66
2023/07/06 03:27:47;;;;;;;6.20;4.10;;;;;;;26.22;nan;62524.75;5031121;28;20210;-66
2023/07/06 03:30:15;;;;;;;5.60;3.80;;;;;;;26.80;nan;62580.06;5030401;28;20685;-66
2023/07/06 03:32:41;;;;;;;6.32;3.63;;;;;;;27.17;nan;62558.91;5031534;28;20665;-66
2023/07/06 03:35:09;;;;;;;7.43;4.40;;;;;;;27.93;nan;62661.09;5030549;28;20184;-66
2023/07/06 03:37:36;;;;;;;6.07;3.90;;;;;;;28.22;nan;62764.16;5031250;28;20587;-66
2023/07/06 03:40:02;;;;;;;5.75;4.03;;;;;;;28.60;nan;62762.44;5030373;28;20682;-67
2023/07/06 03:42:29;;;;;;;5.90;3.38;;;;;;;29.60;nan;62997.25;5031080;28;20187;-66
2023/07/06 03:44:55;;;;;;;6.30;3.95;;;;;;;29.88;nan;62968.25;5030088;28;20241;-66
2023/07/06 03:47:26;;;;;;;4.55;3.30;;;;;;;30.39;nan;63069.09;5031213;28;20214;-67
2023/07/06 03:49:53;;;;;;;5.78;3.95;;;;;;;30.94;nan;63176.69;5030678;28;20677;-67
2023/07/06 03:52:18;;;;;;;6.05;3.75;;;;;;;31.23;nan;63245.97;5034285;28;20710;-67
2023/07/06 03:54:47;;;;;;;5.63;3.75;;;;;;;31.47;nan;63289.47;5032899;28;20270;-66
2023/07/06 03:57:12;;;;;;;5.35;3.58;;;;;;;31.82;nan;63380.09;5034174;28;20182;-66
2023/07/06 03:59:38;;;;;;;5.07;3.42;;;;;;;32.12;nan;63427.44;5033621;28;20191;-67
2023/07/06 04:02:05;;;;;;;6.43;3.95;;;;;;;32.44;nan;63365.88;5033609;28;20236;-65
2023/07/06 04:04:32;;;;;;;4.70;3.38;;;;;;;32.51;nan;63413.09;5033701;28;20222;-66
2023/07/06 04:06:57;;;;;;;5.35;3.72;;;;;;;32.56;nan;63392.34;5033783;28;20213;-65
2023/07/06 04:09:26;;;;;;;6.18;3.70;;;;;;;32.56;nan;63519.44;5032847;28;20187;-68
2023/07/06 04:11:52;;;;;;;6.65;3.50;;;;;;;32.32;nan;63476.41;5033748;28;20631;-71
2023/07/06 04:14:24;;;;;;;4.90;3.40;;;;;;;29.48;nan;62912.91;5033125;28;20175;-66
2023/07/06 04:16:51;;;;;;;4.55;3.17;;;;;;;32.18;nan;63503.16;5034189;28;20183;-66
2023/07/06 04:19:17;;;;;;;6.55;3.60;;;;;;;32.87;nan;63531.47;5033352;28;20175;-67
2023/07/06 04:21:42;;;;;;;4.70;3.28;;;;;;;32.69;nan;63500.09;5034472;28;20228;-66
2023/07/06 04:24:08;;;;;;;5.15;3.40;;;;;;;32.75;nan;63507.59;5033532;28;20179;-66
2023/07/06 04:26:33;;;;;;;4.95;3.58;;;;;;;32.92;nan;63526.66;5031949;28;20186;-64
2023/07/06 04:28:59;;;;;;;5.10;3.35;;;;;;;32.81;nan;63458.31;5032942;28;20171;-64
2023/07/06 04:31:24;;;;;;;4.53;3.15;;;;;;;32.34;nan;63386.09;5033687;28;20174;-66
2023/07/06 04:33:49;;;;;;;4.32;3.35;;;;;;;32.70;nan;63503.88;5032847;28;20181;-67
2023/07/06 04:36:17;;;;;;;6.22;3.80;;;;;;;32.95;nan;63564.00;5032324;28;20724;-66
2023/07/06 04:38:43;;;;;;;5.15;3.55;;;;;;;32.92;nan;63584.38;5033144;28;20262;-65
2023/07/06 04:41:12;;;;;;;5.05;3.78;;;;;;;33.62;nan;63632.97;5033615;28;20637;-65
2023/07/06 04:43:37;;;;;;;8.02;3.80;;;;;;;33.94;nan;63733.72;5031463;28;20194;-65
2023/07/06 04:46:03;;;;;;;5.45;3.70;;;;;;;33.77;nan;63655.66;5033542;28;20198;-65
2023/07/06 04:48:29;;;;;;;5.13;3.65;;;;;;;33.55;nan;63635.50;5032386;28;20242;-64
2023/07/06 04:50:55;;;;;;;4.00;3.10;;;;;;;33.03;nan;63481.09;5029328;28;20231;-65
2023/07/06 04:53:22;;;;;;;5.38;3.70;;;;;;;32.72;nan;63525.31;5031727;28;20178;-65
2023/07/06 04:55:48;;;;;;;5.63;3.70;;;;;;;32.14;nan;63376.25;5032807;28;20190;-66
2023/07/06 04:58:14;;;;;;;6.78;4.25;;;;;;;32.27;nan;63507.69;5032426;28;20599;-68
2023/07/06 05:00:39;;;;;;;6.35;3.67;;;;;;;32.29;nan;63449.13;5033152;28;20416;-65
2023/07/06 05:03:07;;;;;;;5.13;3.35;;;;;;;31.03;nan;63255.16;5031231;28;20222;-67
2023/07/06 05:05:39;;;;;;;10.25;3.88;;;;;;;30.35;nan;63114.03;5032095;28;20275;-63
2023/07/06 05:08:05;;;;;;;5.15;3.80;;;;;;;30.76;nan;63176.50;5032345;28;20234;-66
2023/07/06 05:10:31;;;;;;;5.55;3.85;;;;;;;30.93;nan;63402.06;5031959;28;20232;-66
2023/07/06 05:12:56;;;;;;;7.25;4.00;;;;;;;30.38;nan;63062.66;5032962;28;20296;-69
2023/07/06 05:15:22;;;;;;;6.22;3.80;;;;;;;30.62;nan;63129.28;5033200;28;20194;-68
2023/07/06 05:17:48;;;;;;;5.38;3.50;;;;;;;30.14;nan;62998.16;5033111;28;20182;-64
2023/07/06 05:20:14;;;;;;;6.60;3.83;;;;;;;30.44;nan;63043.19;5032428;28;20610;-67
2023/07/06 05:22:48;;;;;;;6.85;4.15;;;;;;;30.50;nan;63115.50;5032119;28;20214;-64
2023/07/06 05:25:17;;;;;;;5.63;3.90;;;;;;;30.66;nan;63123.34;5031988;28;20630;-64
2023/07/06 05:27:42;;;;;;;5.15;3.65;;;;;;;31.24;nan;63279.41;5032218;28;20242;-66
2023/07/06 05:30:09;;;;;;;6.03;4.05;;;;;;;31.61;nan;63379.66;5032460;28;20257;-68
2023/07/06 05:32:35;;;;;;;8.40;3.67;;;;;;;31.67;nan;63269.69;5031850;28;20179;-67
2023/07/06 05:35:01;;;;;;;5.18;3.35;;;;;;;31.74;nan;63269.81;5030095;28;20297;-66
2023/07/06 05:37:26;;;;;;;5.20;3.53;;;;;;;32.15;nan;63372.66;5031960;28;20198;-68
2023/07/06 05:39:52;;;;;;;6.38;3.97;;;;;;;32.36;nan;63365.16;5031752;28;20174;-68
2023/07/06 05:42:18;;;;;;;4.47;3.42;;;;;;;32.93;nan;63569.63;5031746;28;20688;-67
2023/07/06 05:44:44;;;;;;;4.20;3.20;;;;;;;32.46;nan;63507.91;5027954;28;21110;-68
2023/07/06 05:47:10;;;;;;;4.95;3.67;;;;;;;31.61;nan;63384.97;5032107;28;20202;-68
2023/07/06 05:49:36;;;;;;;6.03;3.60;;;;;;;30.79;nan;63130.41;5031537;28;20182;-67
2023/07/06 05:52:04;;;;;;;6.43;4.00;;;;;;;30.42;nan;63119.47;5018986;28;20179;-67
2023/07/06 05:54:30;;;;;;;6.38;4.03;;;;;;;29.81;nan;62947.59;5030264;28;20174;-69
2023/07/06 05:56:57;;;;;;;5.70;3.40;;;;;;;29.44;nan;62908.31;5032837;28;20666;-68
2023/07/06 05:59:26;;;;;;;7.35;3.95;;;;;;;29.12;nan;62884.72;5031851;28;20197;-68
2023/07/06 06:01:52;;;;;;;5.05;3.50;;;;;;;28.66;nan;62898.25;5032414;28;20669;-68
2023/07/06 06:04:18;;;;;;;4.43;3.50;;;;;;;28.11;nan;62833.63;5031959;28;20222;-68
2023/07/06 06:06:46;;;;;;;11.13;3.47;;;;;;;28.54;nan;62798.81;5032554;28;20170;-68
2023/07/06 06:09:12;;;;;;;5.45;3.63;;;;;;;28.70;nan;62781.81;5031786;28;20227;-68
2023/07/06 06:11:38;;;;;;;5.32;3.63;;;;;;;28.59;nan;62788.19;5032769;28;20194;-69
2023/07/06 06:14:04;;;;;;;6.43;4.10;;;;;;;28.57;nan;62896.38;5031180;28;20274;-67
2023/07/06 06:16:32;;;;;;;6.75;4.15;;;;;;;28.60;nan;62857.72;5032690;28;20181;-67
2023/07/06 06:19:01;;;;;;;5.78;3.70;;;;;;;28.76;nan;62884.00;5026834;28;20202;-67
2023/07/06 06:21:30;;;;;;;5.38;3.70;;;;;;;28.55;nan;62778.91;5023430;28;20210;-68
2023/07/06 06:23:58;;;;;;;5.50;3.60;;;;;;;28.52;nan;62785.44;5032098;28;20292;-70
2023/07/06 06:26:24;;;;;;;7.13;4.07;;;;;;;28.83;nan;62913.09;5032346;28;20183;-68
2023/07/06 06:28:50;;;;;;;5.72;4.00;;;;;;;28.85;nan;63033.84;5031111;28;20611;-69
2023/07/06 06:31:15;;;;;;;7.18;3.83;;;;;;;28.63;nan;62805.91;5032083;28;20649;-70
2023/07/06 06:33:41;;;;;;;5.93;3.90;;;;;;;28.46;nan;62784.38;5032209;28;20178;-67
2023/07/06 06:36:09;;;;;;;5.55;3.72;;;;;;;28.69;nan;62846.44;5031932;28;20244;-69
2023/07/06 06:38:34;;;;;;;6.72;3.88;;;;;;;28.85;nan;62886.47;5031391;28;20209;-69
2023/07/06 06:41:07;;;;;;;5.55;3.72;;;;;;;29.28;nan;63032.69;5031986;28;20635;-67
2023/07/06 06:43:38;;;;;;;5.88;3.83;;;;;;;29.46;nan;63181.38;5031039;28;20672;-67
2023/07/06 06:46:13;;;;;;;5.65;3.50;;;;;;;29.53;nan;62987.16;5031928;28;20179;-69
2023/07/06 06:48:40;;;;;;;6.45;3.95;;;;;;;29.60;nan;62905.03;5032004;28;20782;-69
2023/07/06 06:51:08;;;;;;;6.55;4.22;;;;;;;29.62;nan;62973.22;5031026;28;20534;-69
2023/07/06 06:53:34;;;;;;;5.03;3.85;;;;;;;29.71;nan;63054.69;5030836;28;20623;-65
2023/07/06 06:56:00;;;;;;;6.15;4.00;;;;;;;29.28;nan;62768.78;5031905;28;20194;-69
2023/07/06 06:58:25;;;;;;;6.55;3.65;;;;;;;29.36;nan;63084.06;5030982;28;20179;-66
2023/07/06 07:00:58;;;;;;;7.50;3.80;;;;;;;29.09;nan;62876.00;5030347;28;20190;-69
2023/07/06 07:03:25;;;;;;;5.40;3.78;;;;;;;29.46;nan;63034.41;5031128;28;20214;-66
2023/07/06 07:06:11;;;;;;;7.18;4.43;;;;;;;29.70;nan;63029.81;5031883;28;20240;-68
2023/07/06 07:08:49;;;;;;;5.88;3.92;;;;;;;29.60;nan;63037.34;5031185;28;20289;-70
2023/07/06 07:11:19;;;;;;;7.00;4.25;;;;;;;29.42;nan;62914.50;5031604;28;20175;-70
2023/07/06 07:13:45;;;;;;;5.85;4.00;;;;;;;29.42;nan;63193.13;5030997;28;20252;-70
2023/07/06 07:16:11;;;;;;;6.63;4.20;;;;;;;29.11;nan;62831.50;5031445;28;20615;-67
2023/07/06 07:18:38;;;;;;;5.78;3.83;;;;;;;29.18;nan;62831.06;5031101;28;20183;-69
2023/07/06 07:21:04;;;;;;;6.93;3.75;;;;;;;28.83;nan;62809.91;5031404;28;20225;-68
2023/07/06 07:23:44;;;;;;;6.57;4.00;;;;;;;28.87;nan;62967.13;5030489;28;20182;-67
2023/07/06 07:26:17;;;;;;;6.07;3.60;;;;;;;28.83;nan;62792.06;5032950;28;20258;-70
2023/07/06 07:28:43;;;;;;;6.50;3.90;;;;;;;28.79;nan;62976.94;5034566;28;20688;-67
2023/07/06 07:31:12;;;;;;;7.53;4.13;;;;;;;28.59;nan;62893.41;5035702;28;20210;-66
2023/07/06 07:33:42;;;;;;;5.78;3.67;;;;;;;28.84;nan;62940.56;5034648;28;20182;-71
2023/07/06 07:36:11;;;;;;;6.65;4.10;;;;;;;29.17;nan;62974.72;5035380;28;20189;-68
2023/07/06 07:38:38;;;;;;;5.25;3.53;;;;;;;29.55;nan;62991.50;5034464;28;20672;-66
2023/07/06 07:41:06;;;;;;;9.98;4.30;;;;;;;29.60;nan;63166.47;5035154;28;20221;-70
2023/07/06 07:43:34;;;;;;;5.53;4.10;;;;;;;29.97;nan;63245.47;5034264;28;20187;-69
2023/07/06 07:46:03;;;;;;;5.43;3.58;;;;;;;29.86;nan;62963.88;5034933;28;20193;-70
2023/07/06 07:48:32;;;;;;;5.90;3.83;;;;;;;29.81;nan;63079.97;5032664;28;20206;-67
2023/07/06 07:51:02;;;;;;;6.90;4.15;;;;;;;29.56;nan;62943.16;5031364;28;20171;-69
2023/07/06 07:53:32;;;;;;;5.88;3.88;;;;;;;29.66;nan;62909.88;5034503;28;20197;-68
2023/07/06 07:55:57;;;;;;;5.40;3.90;;;;;;;29.89;nan;63017.44;5046282;28;20229;-67
2023/07/06 07:58:23;;;;;;;5.30;3.83;;;;;;;29.80;nan;62986.56;5034219;28;20210;-69
2023/07/06 08:00:55;;;;;;;5.00;3.92;;;;;;;30.34;nan;63099.69;5034710;28;20266;-67
2023/07/06 08:03:23;;;;;;;6.22;4.18;;;;;;;29.92;nan;63102.03;5034181;28;20255;-68
2023/07/06 08:05:51;;;;;;;5.68;4.03;;;;;;;30.54;nan;63376.66;5033359;28;20183;-70
2023/07/06 08:08:17;;;;;;;6.50;4.13;;;;;;;30.57;nan;63161.06;5034029;28;20703;-68
2023/07/06 08:10:42;;;;;;;7.15;4.35;;;;;;;30.44;nan;63056.38;5034437;28;20175;-66
2023/07/06 08:13:09;;;;;;;7.10;4.00;;;;;;;30.24;nan;62927.88;5033980;28;20646;-69
2023/07/06 08:15:37;;;;;;;6.85;4.07;;;;;;;30.51;nan;63101.41;5034272;28;20681;-71
2023/07/06 08:18:05;;;;;;;7.00;4.03;;;;;;;30.23;nan;63206.88;5034371;28;20250;-68
2023/07/06 08:20:31;;;;;;;6.82;4.13;;;;;;;30.20;nan;63039.91;5034213;28;20179;-67
2023/07/06 08:23:00;;;;;;;6.95;4.40;;;;;;;30.03;nan;62988.13;5034276;28;20180;-69
2023/07/06 08:25:27;;;;;;;5.55;3.80;;;;;;;30.17;nan;63120.25;5034003;28;20260;-66
2023/07/06 08:27:54;;;;;;;5.80;4.07;;;;;;;30.25;nan;63214.47;5033994;28;20293;-69
2023/07/06 08:30:21;;;;;;;5.13;3.85;;;;;;;30.15;nan;63055.25;5033051;28;20187;-67
2023/07/06 08:32:50;;;;;;;6.40;4.05;;;;;;;30.38;nan;63128.06;5034424;28;20621;-67
2023/07/06 08:35:17;;;;;;;6.85;4.07;;;;;;;30.64;nan;63105.78;5033490;28;20201;-69
2023/07/06 08:37:43;;;;;;;6.07;4.00;;;;;;;30.77;nan;63423.75;5032530;28;20271;-67
2023/07/06 08:40:14;;;;;;;5.80;4.00;;;;;;;30.56;nan;63051.72;5034147;28;20649;-68
2023/07/06 08:42:43;;;;;;;6.75;4.20;;;;;;;30.34;nan;63028.47;5031222;28;20189;-66
2023/07/06 08:45:17;;;;;;;5.85;3.78;;;;;;;30.58;nan;63146.38;5033902;28;20182;-68
2023/07/06 08:47:44;;;;;;;8.55;4.40;;;;;;;31.10;nan;63181.38;5033881;28;20199;-67
2023/07/06 08:50:10;;;;;;;7.55;4.70;;;;;;;30.88;nan;63097.94;5033823;28;20202;-67
2023/07/06 08:52:37;;;;;;;5.53;4.13;;;;;;;30.61;nan;63099.13;5048747;28;20186;-69
2023/07/06 08:55:11;;;;;;;7.10;4.93;;;;;;;30.81;nan;63254.13;5033650;28;20170;-69
2023/07/06 08:57:37;;;;;;;8.30;4.40;;;;;;;31.01;nan;63150.47;5033280;28;20224;-68
2023/07/06 09:00:03;;;;;;;10.70;4.28;;;;;;;31.12;nan;63144.63;5033618;28;20184;-70
2023/07/06 09:02:31;;;;;;;7.03;4.60;;;;;;;31.20;nan;63184.38;5033164;28;20309;-67
2023/07/06 09:05:07;;;;;;;6.63;4.60;;;;;;;31.04;nan;63240.47;5033242;28;20225;-67
2023/07/06 09:07:39;;;;;;;5.88;4.38;;;;;;;31.13;nan;63180.13;5033376;28;20277;-67
2023/07/06 09:10:23;;;;;;;6.20;3.97;;;;;;;31.09;nan;63193.44;5032925;28;20671;-66
2023/07/06 09:12:50;;;;;;;5.90;4.38;;;;;;;30.91;nan;63173.25;5032774;28;20514;-70
2023/07/06 09:15:28;;;;;;;6.10;4.35;;;;;;;30.76;nan;63108.47;5031956;28;20175;-69
2023/07/06 09:17:59;;;;;;;6.75;4.55;;;;;;;30.94;nan;63139.16;5031599;28;20190;-68
2023/07/06 09:20:26;;;;;;;8.73;4.47;;;;;;;30.86;nan;63098.28;5031627;28;20666;-66
2023/07/06 09:22:52;;;;;;;8.38;4.47;;;;;;;30.66;nan;63134.47;5032029;28;20202;-70
2023/07/06 09:25:25;;;;;;;5.88;4.13;;;;;;;30.42;nan;63059.34;5031721;28;20240;-69
2023/07/06 09:27:51;;;;;;;7.20;4.45;;;;;;;30.38;nan;63017.25;5032660;28;20666;-70
2023/07/06 09:30:36;;;;;;;6.78;4.25;;;;;;;30.54;nan;63217.72;5033447;28;20174;-69
2023/07/06 09:33:25;;;;;;;5.93;4.20;;;;;;;31.10;nan;63271.19;5033385;28;20533;-66
2023/07/06 09:35:53;;;;;;;5.63;4.13;;;;;;;31.22;nan;63176.69;5033301;28;20642;-66
2023/07/06 09:38:20;;;;;;;5.78;3.75;;;;;;;30.78;nan;63150.38;5033075;28;20190;-69
2023/07/06 09:40:46;;;;;;;4.75;3.60;;;;;;;30.82;nan;63199.28;5033121;28;20676;-71
2023/07/06 09:43:37;;;;;;;7.22;4.50;;;;;;;31.21;nan;63248.94;5032856;28;20211;-67
2023/07/06 09:46:04;;;;;;;7.18;3.65;;;;;;;30.94;nan;63078.41;5031702;28;20181;-68
2023/07/06 09:48:37;;;;;;;6.55;3.58;;;;;;;31.31;nan;63207.63;5032244;28;20573;-68
2023/07/06 09:51:08;;;;;;;10.70;3.65;;;;;;;31.59;nan;63324.47;5032581;28;20177;-67
2023/07/06 09:53:58;;;;;;;5.78;3.55;;;;;;;31.58;nan;63334.47;5032720;28;20171;-68
2023/07/06 09:56:23;;;;;;;5.13;3.90;;;;;;;31.38;nan;63160.19;5032538;28;20232;-67
2023/07/06 09:58:52;;;;;;;7.15;3.63;;;;;;;31.20;nan;63264.22;5032649;28;20592;-67
2023/07/06 10:01:27;;;;;;;5.53;4.00;;;;;;;31.50;nan;63274.44;5032171;28;20677;-68
2023/07/06 10:04:14;;;;;;;6.75;3.67;;;;;;;31.63;nan;63310.03;5032946;28;20228;-67
2023/07/06 10:07:07;;;;;;;5.20;3.50;;;;;;;31.90;nan;63378.19;5032644;28;20173;-69
2023/07/06 10:09:39;;;;;;;5.35;3.88;;;;;;;31.75;nan;63241.91;5032666;28;20254;-65
2023/07/06 10:12:18;;;;;;;5.00;3.50;;;;;;;31.88;nan;63383.81;5032373;28;20244;-69
2023/07/06 10:14:49;;;;;;;5.95;3.40;;;;;;;31.08;nan;63340.75;5032747;28;20566;-70
2023/07/06 10:17:37;;;;;;;4.18;3.38;;;;;;;31.43;nan;63274.88;5032749;28;20315;-68
2023/07/06 10:20:17;;;;;;;7.95;3.60;;;;;;;31.24;nan;63292.59;5032173;28;20642;-67
2023/07/06 10:23:07;;;;;;;4.93;3.63;;;;;;;31.51;nan;63315.81;5032272;28;20166;-67
2023/07/06 10:25:46;;;;;;;4.35;3.28;;;;;;;31.46;nan;63259.84;5032870;28;20529;-65
2023/07/06 10:28:28;;;;;;;5.07;3.45;;;;;;;30.91;nan;63136.28;5030685;28;20636;-68
2023/07/06 10:30:57;;;;;;;4.35;3.00;;;;;;;31.53;nan;63302.28;5030431;28;20175;-67
2023/07/06 10:33:32;;;;;;;4.38;3.25;;;;;;;31.81;nan;63281.13;5031897;28;20179;-68
2023/07/06 10:35:58;;;;;;;5.55;3.55;;;;;;;31.68;nan;63247.03;5031753;28;20163;-68
2023/07/06 10:38:25;;;;;;;4.40;3.40;;;;;;;31.95;nan;63450.66;5031294;28;20175;-69
2023/07/06 10:41:11;;;;;;;4.80;3.50;;;;;;;31.60;nan;63229.91;5029948;28;20190;-64
2023/07/06 10:43:40;;;;;;;8.75;3.97;;;;;;;31.73;nan;63268.66;5031225;28;20209;-68
2023/07/06 10:46:52;;;;;;;5.65;3.78;;;;;;;32.19;nan;63440.22;5031688;28;20225;-66
2023/07/06 10:49:20;;;;;;;6.03;3.95;;;;;;;32.05;nan;63328.81;5012873;28;20191;-68
2023/07/06 10:51:55;;;;;;;5.00;3.70;;;;;;;32.01;nan;63327.97;5031250;28;20175;-67
2023/07/06 10:54:20;;;;;;;5.53;3.75;;;;;;;31.51;nan;63315.25;5031478;28;20170;-67
2023/07/06 10:57:00;;;;;;;5.65;3.90;;;;;;;31.56;nan;63522.50;5031210;28;20170;-71
2023/07/06 10:59:41;;;;;;;5.65;3.53;;;;;;;31.42;nan;63336.56;5030806;28;20155;-64
2023/07/06 11:02:40;;;;;;;5.60;3.97;;;;;;;31.64;nan;63317.03;5032516;28;20235;-67
2023/07/06 11:05:10;;;;;;;5.68;3.90;;;;;;;31.74;nan;63388.81;5028987;28;20654;-63
2023/07/06 11:07:49;;;;;;;4.65;3.50;;;;;;;31.23;nan;63302.00;5035196;28;20202;-67
2023/07/06 11:10:23;;;;;;;7.13;3.90;;;;;;;31.47;nan;63258.34;5035562;28;20173;-64
2023/07/06 11:13:01;;;;;;;6.05;3.97;;;;;;;31.44;nan;63275.47;5034933;28;20530;-64
2023/07/06 11:16:02;;;;;;;5.32;3.70;;;;;;;31.40;nan;63292.00;5035517;28;20159;-69
2023/07/06 11:18:32;;;;;;;5.82;3.75;;;;;;;31.42;nan;63304.84;5035137;28;20209;-66
2023/07/06 11:21:03;;;;;;;5.63;4.05;;;;;;;30.80;nan;63223.94;5035735;28;20209;-68
2023/07/06 11:23:45;;;;;;;7.40;3.63;;;;;;;31.54;nan;63276.97;5034946;28;20166;-66
2023/07/06 11:26:45;;;;;;;7.15;4.20;;;;;;;31.39;nan;63261.78;5035201;28;20171;-64
2023/07/06 11:29:11;;;;;;;4.90;3.20;;;;;;;31.39;nan;63322.53;5021250;28;20194;-65
2023/07/06 11:31:58;;;;;;;6.22;3.67;;;;;;;31.67;nan;63309.34;5033976;28;20262;-64
2023/07/06 11:34:30;;;;;;;6.07;4.05;;;;;;;31.97;nan;63336.00;5034919;28;20197;-68
2023/07/06 11:37:07;;;;;;;5.18;4.00;;;;;;;31.83;nan;63341.59;5034886;28;20171;-68
2023/07/06 11:40:24;;;;;;;5.22;3.60;;;;;;;31.81;nan;63362.53;5034353;28;20224;-66
2023/07/06 11:43:06;;;;;;;6.38;3.90;;;;;;;31.35;nan;63185.81;5015015;28;20198;-66
2023/07/06 11:45:33;;;;;;;5.95;3.80;;;;;;;31.60;nan;63266.91;5034799;28;20175;-74
2023/07/06 11:48:06;;;;;;;5.82;3.80;;;;;;;31.93;nan;63323.47;5033943;28;20190;-67
2023/07/06 11:50:36;;;;;;;5.82;3.90;;;;;;;32.06;nan;63314.06;5034631;28;20170;-67
2023/07/06 11:53:09;;;;;;;5.85;3.88;;;;;;;31.83;nan;63309.28;5034789;28;20167;-67
2023/07/06 11:55:50;;;;;;;6.10;4.03;;;;;;;31.68;nan;63297.84;5034470;28;20210;-67
2023/07/06 11:59:07;;;;;;;5.78;4.10;;;;;;;31.70;nan;63532.84;5034616;28;20167;-67
2023/07/06 12:01:20;;;;;;;6.03;4.03;;;;;;;31.59;nan;63200.25;5030484;28;20198;-68
2023/07/06 12:03:47;;;;;;;5.38;3.75;;;;;;;31.80;nan;63309.06;5034759;28;20226;-67
2023/07/06 12:06:17;;;;;;;5.88;3.80;;;;;;;32.39;nan;63439.50;5033245;28;20224;-72